• Join FlightAware (Why Join?)
  • Login
  • US Flag 
12:58AM EDT


 

Airport Tracker/Info


-or-


 

Live Flight TrackerFlight Track Log ✈ N55TG ✈ 17-Jul-2014 ✈ KPSF - KART

Flight Track Log - Related Links

Times and Time Zones

All times are in EDT time to prevent confusion due to time zone crossing. See the N55TG flight status page for this flight to view local times or setup timezone preferences in your user account.

Time Position Orientation Groundspeed Altitude Reporting Facility
EDT Latitude Longitude Course Direction KTS MPH feet Rate Location/Type
05:41PM 42.2492 -73.3431 304° West 102 117 6,300  Level Boston Center
05:42PM 42.2725 -73.3681 322° Northwest 114 131 6,200 -120 Descending Boston Center
05:43PM 42.2808 -73.3744 330° Northwest 103 119 6,200 480 Level Boston Center
05:43PM 42.2944 -73.3897 320° Northwest 96 110 6,700 360 Climbing Boston Center
05:44PM 42.3033 -73.3942 340° North 100 115 6,600 -300 Descending Boston Center
05:44PM 42.3211 -73.4072 331° Northwest 103 119 6,400 -300 Descending Boston Center
05:45PM 42.3353 -73.4178 331° Northwest 106 122 6,300  Descending Boston Center
05:45PM 42.3492 -73.4308 325° Northwest 112 129 6,400  Climbing Boston Center
05:46PM 42.3600 -73.4403 327° Northwest 104 120 6,300 -120 Descending Boston Center
05:46PM 42.3731 -73.4531 324° Northwest 107 123 6,300 -120 Level Boston Center
05:47PM 42.5481 -73.4963 304° West  Level FlightAware Approximate
05:47PM 42.3856 -73.4614 334° Northwest 109 125 6,200  Level Boston Center
05:47PM 42.3917 -73.4681 321° Northwest 109 125 6,300 60 Climbing Boston Center
05:48PM 42.4133 -73.4831 333° Northwest 105 121 6,300 60 Level Boston Center
05:48PM 42.4217 -73.4925 320° Northwest 106 122 6,400 -120 Climbing Boston Center
05:49PM 42.4403 -73.5072 330° Northwest 105 121 6,200 -240 Descending Boston Center
05:50PM 42.4683 -73.5286 331° Northwest 114 131 6,000 -300 Descending Boston Center
05:51PM 42.4947 -73.5536 325° Northwest 114 131 5,700 -240 Descending Boston Center
05:51PM 42.4997 -73.5589 322° Northwest 117 135 5,700 -180 Level Boston Center
05:52PM 42.5261 -73.5792 330° Northwest 119 137 5,500 -300 Descending Boston Center
05:53PM 42.5536 -73.6006 330° Northwest 116 133 5,200 -300 Descending Boston Center
05:54PM 42.5817 -73.6219 331° Northwest 116 133 5,000 -60 Descending Boston Center
05:55PM 42.6094 -73.6436 330° Northwest 108 124 5,100 60 Climbing Boston Center
05:56PM 42.6322 -73.6642 326° Northwest 103 119 5,200  Climbing Boston Center
05:57PM 42.6569 -73.6875 325° Northwest 102 117 5,200 240 Level Boston Center
05:58PM 42.6764 -73.7103 319° Northwest 94 108 5,800 540 Climbing Boston Center
05:59PM 42.6917 -73.7306 316° Northwest 81 93 6,400 300 Climbing Boston Center
06:00PM 42.7108 -73.7544 318° Northwest 91 105 6,500 60 Climbing Boston Center
06:01PM 42.7358 -73.7828 320° Northwest 104 120 6,600  Climbing Boston Center
06:02PM 42.7608 -73.8092 322° Northwest 117 135 6,500 -60 Descending Boston Center
06:03PM 42.7836 -73.8375 318° Northwest 110 127 6,500 -60 Level Boston Center
06:04PM 42.8044 -73.8647 316° Northwest 105 121 6,400  Descending Boston Center
06:05PM 42.8275 -73.8903 321° Northwest 98 113 6,500  Climbing Boston Center
06:06PM 42.8544 -73.9122 329° Northwest 101 116 6,500  Level Boston Center
06:07PM 42.8803 -73.9314 331° Northwest 104 120 6,600 60 Climbing Boston Center
06:09PM 42.9061 -73.9558 325° Northwest 105 121 6,700  Climbing Boston Center
06:10PM 42.9308 -73.9781 327° Northwest 105 121 6,700 -60 Level Boston Center
06:10PM 42.9553 -74.0011 325° Northwest 108 124 6,600 -120 Descending Boston Center
06:12PM 42.9806 -74.0272 323° Northwest 107 123 6,500 -120 Descending Boston Center
06:13PM 43.0069 -74.0481 330° Northwest 105 121 6,400 -60 Descending Boston Center
06:14PM 43.0261 -74.0722 317° Northwest 102 117 6,400  Level Boston Center
06:15PM 43.0478 -74.0942 323° Northwest 99 114 6,500 120 Climbing Boston Center
06:15PM 43.0531 -74.1014 315° West 104 120 6,600 60 Climbing Boston Center
06:16PM 43.0742 -74.1253 320° Northwest 105 121 6,600  Level Boston Center
06:17PM 43.0942 -74.1456 323° Northwest 100 115 6,600 -60 Level Boston Center
06:18PM 43.1197 -74.1692 326° Northwest 100 115 6,500 -60 Descending Boston Center
06:19PM 43.1442 -74.1892 329° Northwest 108 124 6,500  Level Boston Center
06:19PM 43.1494 -74.1953 320° Northwest 105 121 6,500 60 Level Boston Center
06:19PM 43.1658 -74.2114 324° Northwest 110 127 6,600  Climbing Boston Center
06:20PM 43.1764 -74.2225 322° Northwest 105 121 6,500 60 Descending Boston Center
06:21PM 43.1889 -74.2369 320° Northwest 110 127 6,700  Climbing Boston Center
06:21PM 43.2231 -74.0536 76° East 171 197 6,500 -120 Descending Boston Center
06:22PM 43.2125 -74.2600 266° West 107 123 6,600  Climbing Boston Center
06:22PM 43.2233 -74.2725 320° Northwest 106 122 6,500 -120 Descending Boston Center
06:22PM 43.2381 -74.2864 326° Northwest 108 124 6,500  Level Boston Center
06:23PM 43.2475 -74.2969 321° Northwest 106 122 6,500  Level Boston Center
06:24PM 43.2678 -74.3161 325° Northwest 105 121 6,500 180 Level Boston Center
06:25PM 43.2978 -74.3414 328° Northwest 98 113 6,900 180 Climbing Boston Center
06:26PM 43.3108 -74.3683 304° West 93 107 7,000 -60 Climbing Boston Center
06:27PM 43.3297 -74.3972 312° West 101 116 6,800 -180 Descending Boston Center
06:28PM 43.3556 -74.4222 325° Northwest 114 131 6,700 -120 Descending Boston Center
06:29PM 43.3764 -74.4544 312° West 115 132 6,600 -240 Descending Boston Center
06:30PM 43.3925 -74.4883 303° West 110 127 6,300 -180 Descending Boston Center
06:31PM 43.4139 -74.5147 318° Northwest 107 123 6,300 60 Level Boston Center
06:32PM 43.4344 -74.5325 328° Northwest 104 120 6,500  Climbing Boston Center
06:33PM 43.4647 -74.5589 328° Northwest 105 121 6,400 -120 Descending Boston Center
06:34PM 43.4894 -74.5778 331° Northwest 108 124 6,300  Descending Boston Center
06:35PM 43.5136 -74.5994 327° Northwest 106 122 6,400  Climbing Boston Center
06:36PM 43.5350 -74.6261 318° Northwest 104 120 6,400  Level Boston Center
06:38PM 43.5517 -74.6837 292° West  Level FlightAware Approximate
06:45PM 43.6359 -74.9756 292° West  Level FlightAware Approximate
06:46PM 43.6478 -75.0174 292° West  Level FlightAware Approximate
06:47PM 43.6598 -75.0592 292° West  Level FlightAware Approximate
06:48PM 43.6730 -75.1015 296° West  Level FlightAware Approximate
06:49PM 43.6869 -75.1421 295° West  Level FlightAware Approximate
06:50PM 43.7009 -75.1827 295° West  Level FlightAware Approximate
06:51PM 43.7149 -75.2233 295° West  Level FlightAware Approximate
06:52PM 43.7288 -75.2639 295° West  Level FlightAware Approximate
06:53PM 43.7427 -75.3046 295° West  Level FlightAware Approximate
06:54PM 43.7566 -75.3453 295° West  Level FlightAware Approximate
06:55PM 43.7705 -75.3859 295° West  Level FlightAware Approximate
06:56PM 43.7844 -75.4267 295° West  Level FlightAware Approximate
06:57PM 43.7983 -75.4674 295° West  Level FlightAware Approximate
06:58PM 43.8121 -75.5081 295° West  Level FlightAware Approximate
06:59PM 43.8260 -75.5489 295° West  Level FlightAware Approximate
07:00PM 43.8398 -75.5897 295° West  Level FlightAware Approximate
07:01PM 43.8536 -75.6305 295° West  Level FlightAware Approximate
07:02PM 43.8674 -75.6713 295° West  Level FlightAware Approximate
07:03PM 43.8812 -75.7121 295° West  Level FlightAware Approximate
07:04PM 43.8950 -75.7530 295° West  Level FlightAware Approximate
07:05PM 43.9087 -75.7939 295° West  Level FlightAware Approximate
07:06PM 43.9225 -75.8347 295° West  Level FlightAware Approximate
07:07PM 43.9362 -75.8757 295° West  Level FlightAware Approximate
07:08PM 43.9499 -75.9166 295° West  Level FlightAware Approximate
07:09PM 43.9636 -75.9575 295° West  Level FlightAware Approximate
07:10PM 43.9773 -75.9985 295° West  Level FlightAware Approximate
07:11PM 43.9833 -76.0167 296° West  Level FlightAware Approximate
07:12PM 43.9919 -76.0207 341° North  Level Estimated
07:13PM 43.9919 -76.0207 North  Level Estimated
07:14PM 43.9919 -76.0207 North  Level Estimated
07:15PM 43.9919 -76.0207 North  Level Estimated
07:16PM 43.9919 -76.0207 North  Level Estimated
07:17PM 43.9919 -76.0207 North  Level Estimated
07:18PM 43.9919 -76.0207 North  Level Estimated
07:19PM 43.9919 -76.0207 North  Level Estimated
07:20PM 43.9919 -76.0207 North  Level Estimated
07:21PM 43.9919 -76.0207 North  Level Estimated
07:22PM 43.9919 -76.0207 North  Level Estimated
07:23PM 43.9919 -76.0207 North  Level Estimated
07:24PM 43.9919 -76.0207 North  Level Estimated
07:25PM 43.9919 -76.0207 North  Level Estimated